createdAt,value
2023-04-14T00:01:29.452Z,3.65
2023-04-14T00:03:57.039Z,6.05
2023-04-14T00:06:24.299Z,7.25
2023-04-14T00:08:51.468Z,9.23
2023-04-14T00:11:18.573Z,8.63
2023-04-14T00:13:45.840Z,10.90
2023-04-14T00:16:12.996Z,8.30
2023-04-14T00:18:40.181Z,12.82
2023-04-14T00:21:07.417Z,7.82
2023-04-14T00:23:34.546Z,5.80
2023-04-14T00:26:01.685Z,12.15
2023-04-14T00:28:29.027Z,8.05
2023-04-14T00:30:56.196Z,6.78
2023-04-14T00:33:23.327Z,6.82
2023-04-14T00:35:50.495Z,11.23
2023-04-14T00:38:17.679Z,8.82
2023-04-14T00:40:45.013Z,5.97
2023-04-14T00:43:12.123Z,12.05
2023-04-14T00:45:42.212Z,8.98
2023-04-14T00:48:09.422Z,7.30
2023-04-14T00:50:36.556Z,7.32
2023-04-14T00:53:04.353Z,5.03
2023-04-14T00:55:31.572Z,9.00
2023-04-14T00:57:58.679Z,9.32
2023-04-14T01:00:26.196Z,9.20
2023-04-14T01:02:53.488Z,10.30
2023-04-14T01:05:20.894Z,9.80
2023-04-14T01:07:48.558Z,10.43
2023-04-14T01:10:15.944Z,14.98
2023-04-14T01:12:49.132Z,14.20
2023-04-14T01:15:26.066Z,11.20
2023-04-14T01:18:13.441Z,11.60
2023-04-14T01:20:43.126Z,13.23
2023-04-14T01:23:13.587Z,8.65
2023-04-14T01:25:58.600Z,12.15
2023-04-14T01:28:28.535Z,12.93
2023-04-14T01:34:23.043Z,11.93
2023-04-14T01:39:20.302Z,13.13
2023-04-14T01:41:49.148Z,13.48
2023-04-14T01:44:19.350Z,11.75
2023-04-14T01:46:47.868Z,12.05
2023-04-14T01:49:15.395Z,9.52
2023-04-14T01:51:43.649Z,8.18
2023-04-14T01:54:12.222Z,9.73
2023-04-14T01:56:40.535Z,10.68
2023-04-14T01:59:09.117Z,10.50
2023-04-14T02:01:36.993Z,12.95
2023-04-14T02:04:04.825Z,10.93
2023-04-14T02:06:33.473Z,11.45
2023-04-14T02:09:02.726Z,16.60
2023-04-14T02:11:31.483Z,12.32
2023-04-14T02:13:58.974Z,15.30
2023-04-14T02:16:26.200Z,13.52
2023-04-14T02:18:53.513Z,15.77
2023-04-14T02:21:21.260Z,13.98
2023-04-14T02:23:48.425Z,14.05
2023-04-14T02:26:16.659Z,12.77
2023-04-14T02:28:51.248Z,11.75
2023-04-14T02:31:23.819Z,14.70
2023-04-14T02:33:55.862Z,15.55
2023-04-14T02:36:24.927Z,15.45
2023-04-14T02:39:07.226Z,11.77
2023-04-14T02:41:35.757Z,11.55
2023-04-14T02:44:16.575Z,12.13
2023-04-14T02:46:46.897Z,13.98
2023-04-14T02:49:15.815Z,13.95
2023-04-14T02:51:44.576Z,13.07
2023-04-14T02:54:12.096Z,14.60
2023-04-14T02:56:39.384Z,14.52
2023-04-14T02:59:07.228Z,15.75
2023-04-14T03:01:35.050Z,14.23
2023-04-14T03:04:02.848Z,12.07
2023-04-14T03:06:31.621Z,12.35
2023-04-14T03:09:00.392Z,14.13
2023-04-14T03:11:28.226Z,17.65
2023-04-14T03:13:57.241Z,13.25
2023-04-14T03:16:24.663Z,16.70
2023-04-14T03:18:54.463Z,14.18
2023-04-14T03:21:22.002Z,14.80
2023-04-14T03:23:52.838Z,14.73
2023-04-14T03:26:21.403Z,15.40
2023-04-14T03:28:48.882Z,17.52
2023-04-14T03:31:19.012Z,15.13
2023-04-14T03:33:47.961Z,16.13
2023-04-14T03:36:16.192Z,14.60
2023-04-14T03:38:44.853Z,16.02
2023-04-14T03:41:12.726Z,15.13
2023-04-14T03:43:40.029Z,13.90
2023-04-14T03:46:07.587Z,15.63
2023-04-14T03:48:36.768Z,16.85
2023-04-14T03:51:05.016Z,17.48
2023-04-14T03:53:34.489Z,14.63
2023-04-14T03:56:02.953Z,12.68
2023-04-14T03:58:32.082Z,15.65
2023-04-14T04:00:59.748Z,14.55
2023-04-14T04:03:27.631Z,15.88
2023-04-14T04:05:55.333Z,13.82
2023-04-14T04:08:23.878Z,19.30
2023-04-14T04:10:52.157Z,12.65
2023-04-14T04:13:20.013Z,17.20
2023-04-14T04:15:48.197Z,12.10
2023-04-14T04:18:16.451Z,20.38
2023-04-14T04:20:43.976Z,13.70
2023-04-14T04:23:11.786Z,17.42
2023-04-14T04:25:40.487Z,16.45
2023-04-14T04:28:07.919Z,15.38
2023-04-14T04:30:39.521Z,17.48
2023-04-14T04:33:07.798Z,16.27
2023-04-14T04:35:36.154Z,13.05
2023-04-14T04:38:05.108Z,12.27
2023-04-14T04:40:38.652Z,12.82
2023-04-14T04:43:06.251Z,13.80
2023-04-14T04:45:45.933Z,12.95
2023-04-14T04:48:13.367Z,13.05
2023-04-14T04:50:41.882Z,13.63
2023-04-14T04:53:09.013Z,15.95
2023-04-14T04:55:36.341Z,17.30
2023-04-14T04:58:03.479Z,15.63
2023-04-14T05:00:30.830Z,12.18
2023-04-14T05:02:58.196Z,13.98
2023-04-14T05:05:25.391Z,12.43
2023-04-14T05:07:52.584Z,13.57
2023-04-14T05:10:19.775Z,13.35
2023-04-14T05:12:47.259Z,14.55
2023-04-14T05:15:14.462Z,14.77
2023-04-14T05:17:41.653Z,15.50
2023-04-14T05:20:09.006Z,14.55
2023-04-14T05:22:36.128Z,7.13
2023-04-14T05:25:04.228Z,13.80
2023-04-14T05:27:32.448Z,13.05
2023-04-14T05:29:59.566Z,14.15
2023-04-14T05:32:28.986Z,13.05
2023-04-14T05:34:57.762Z,14.38
2023-04-14T05:37:24.944Z,15.25
2023-04-14T05:39:52.042Z,10.68
2023-04-14T05:42:19.164Z,11.10
2023-04-14T05:44:46.419Z,11.32
2023-04-14T05:47:13.738Z,16.27
2023-04-14T05:49:41.062Z,12.63
2023-04-14T05:52:08.223Z,11.40
2023-04-14T05:54:35.483Z,9.48
2023-04-14T05:57:02.635Z,10.30
2023-04-14T05:59:29.894Z,8.68
2023-04-14T06:01:57.210Z,10.20
2023-04-14T06:04:24.527Z,10.50
2023-04-14T06:06:51.790Z,11.02
2023-04-14T06:09:18.906Z,7.57
2023-04-14T06:11:46.260Z,10.50
2023-04-14T06:14:13.516Z,11.32
2023-04-14T06:16:41.796Z,10.25
2023-04-14T06:19:09.025Z,12.85
2023-04-14T06:21:36.454Z,9.70
2023-04-14T06:24:03.665Z,9.95
2023-04-14T06:26:35.643Z,13.00
2023-04-14T06:29:03.243Z,8.38
2023-04-14T06:31:30.775Z,9.70
2023-04-14T06:33:58.317Z,9.65
2023-04-14T06:36:26.349Z,11.82
2023-04-14T06:38:54.129Z,9.80
2023-04-14T06:41:22.010Z,7.85
2023-04-14T06:43:49.881Z,11.20
2023-04-14T06:46:18.165Z,8.68
2023-04-14T06:48:45.767Z,8.07
2023-04-14T06:51:13.810Z,10.68
2023-04-14T06:53:47.072Z,9.07
2023-04-14T06:56:15.515Z,8.48
2023-04-14T06:58:42.728Z,10.10
2023-04-14T07:01:10.093Z,8.55
2023-04-14T07:03:37.705Z,10.57
2023-04-14T07:06:05.209Z,8.77
2023-04-14T07:08:33.282Z,9.00
2023-04-14T07:11:01.898Z,9.57
2023-04-14T07:13:29.496Z,9.02
2023-04-14T07:15:56.983Z,10.77
2023-04-14T07:18:24.361Z,6.80
2023-04-14T07:20:54.910Z,7.53
2023-04-14T07:23:23.504Z,9.18
2023-04-14T07:25:55.712Z,7.47
2023-04-14T07:28:27.414Z,9.13
2023-04-14T07:30:54.947Z,7.43
2023-04-14T07:33:22.587Z,8.05
2023-04-14T07:36:01.359Z,9.82
2023-04-14T07:38:29.945Z,7.78
2023-04-14T07:40:57.563Z,8.98
2023-04-14T07:43:24.766Z,7.57
2023-04-14T07:45:53.156Z,7.78
2023-04-14T07:48:21.556Z,6.50
2023-04-14T07:50:52.663Z,7.32
2023-04-14T07:53:19.877Z,6.97
2023-04-14T07:56:09.945Z,6.95
2023-04-14T07:58:37.162Z,4.53
2023-04-14T08:01:04.985Z,5.22
2023-04-14T08:03:32.246Z,8.02
2023-04-14T08:05:59.620Z,7.70
2023-04-14T08:08:26.846Z,6.82
2023-04-14T08:10:55.976Z,8.70
2023-04-14T08:13:41.849Z,8.65
2023-04-14T08:16:09.472Z,7.47
2023-04-14T08:18:37.393Z,8.02
2023-04-14T08:21:04.571Z,7.93
2023-04-14T08:23:31.871Z,11.07
2023-04-14T08:25:59.156Z,8.85
2023-04-14T08:28:26.481Z,6.82
2023-04-14T08:30:53.635Z,7.30
2023-04-14T08:33:20.832Z,5.70
2023-04-14T08:35:59.506Z,6.50
2023-04-14T08:38:27.991Z,7.03
2023-04-14T08:40:58.330Z,8.70
2023-04-14T08:43:25.785Z,6.25
2023-04-14T08:45:53.782Z,5.53
2023-04-14T08:48:22.496Z,7.18
2023-04-14T08:51:10.277Z,7.50
2023-04-14T08:53:43.872Z,12.68
2023-04-14T08:56:11.839Z,7.47
2023-04-14T08:58:39.352Z,9.40
2023-04-14T09:01:07.530Z,3.88
2023-04-14T09:07:06.993Z,5.65
2023-04-14T09:09:34.730Z,8.32
2023-04-14T09:12:03.754Z,3.42
2023-04-14T09:14:31.457Z,4.03
2023-04-14T09:16:58.681Z,6.53
2023-04-14T09:19:26.672Z,5.80
2023-04-14T09:21:54.919Z,5.05
2023-04-14T09:24:32.270Z,4.78
2023-04-14T09:26:59.772Z,3.65
2023-04-14T09:29:27.142Z,5.95
2023-04-14T09:31:54.430Z,3.53
2023-04-14T09:34:32.493Z,5.05
2023-04-14T09:37:01.052Z,4.60
2023-04-14T09:39:28.423Z,9.20
2023-04-14T09:41:55.982Z,3.70
2023-04-14T09:44:23.238Z,5.43
2023-04-14T09:47:16.511Z,6.97
2023-04-14T09:49:56.130Z,7.68
2023-04-14T09:52:23.405Z,6.93
2023-04-14T09:54:56.418Z,6.15
2023-04-14T09:57:26.879Z,4.15
2023-04-14T09:59:54.108Z,7.43
2023-04-14T10:02:26.924Z,6.93
2023-04-14T10:05:07.122Z,4.72
2023-04-14T10:07:34.492Z,7.47
2023-04-14T10:10:09.704Z,6.00
2023-04-14T10:12:37.450Z,6.72
2023-04-14T10:15:05.427Z,4.43
2023-04-14T10:17:34.192Z,6.05
2023-04-14T10:20:01.604Z,7.13
2023-04-14T10:22:29.531Z,6.75
2023-04-14T10:25:18.144Z,5.32
2023-04-14T10:27:45.888Z,6.10
2023-04-14T10:30:13.324Z,5.75
2023-04-14T10:32:41.624Z,6.82
2023-04-14T10:35:13.198Z,6.18
2023-04-14T10:37:41.426Z,8.40
2023-04-14T10:40:08.860Z,7.75
2023-04-14T10:42:54.734Z,4.50
2023-04-14T10:45:22.252Z,4.63
2023-04-14T10:47:50.830Z,5.10
2023-04-14T10:50:19.209Z,7.25
2023-04-14T10:52:50.476Z,4.50
2023-04-14T10:55:17.873Z,5.47
2023-04-14T10:57:47.171Z,7.65
2023-04-14T11:00:20.477Z,5.20
2023-04-14T11:03:00.030Z,6.57
2023-04-14T11:05:27.287Z,4.45
2023-04-14T11:07:56.242Z,6.18
2023-04-14T11:10:24.125Z,5.28
2023-04-14T11:12:58.840Z,3.90
2023-04-14T11:15:43.361Z,3.88
2023-04-14T11:18:17.408Z,5.10
2023-04-14T11:20:45.015Z,4.82
2023-04-14T11:23:19.276Z,6.75
2023-04-14T11:25:46.780Z,2.53
2023-04-14T11:28:14.001Z,2.95
2023-04-14T11:30:42.096Z,1.58
2023-04-14T11:33:09.370Z,6.32
2023-04-14T11:35:36.695Z,4.95
2023-04-14T11:38:04.189Z,6.95
2023-04-14T11:40:31.468Z,3.28
2023-04-14T11:42:59.710Z,5.82
2023-04-14T11:45:31.004Z,5.38
2023-04-14T11:48:02.783Z,3.95
2023-04-14T11:50:34.804Z,2.97
2023-04-14T11:53:03.100Z,5.40
2023-04-14T11:55:30.740Z,5.53
2023-04-14T11:57:58.196Z,4.45
2023-04-14T12:00:25.737Z,4.45
2023-04-14T12:02:53.074Z,4.45
2023-04-14T12:05:22.282Z,2.83
2023-04-14T12:07:50.420Z,3.08
2023-04-14T12:10:17.813Z,2.10
2023-04-14T12:12:45.173Z,2.92
2023-04-14T12:15:13.605Z,2.58
2023-04-14T12:20:15.832Z,5.03
2023-04-14T12:22:43.100Z,3.53
2023-04-14T12:25:13.366Z,4.25
2023-04-14T12:27:40.685Z,2.55
2023-04-14T12:30:09.565Z,3.72
2023-04-14T12:32:44.604Z,5.18
2023-04-14T12:35:12.067Z,3.83
2023-04-14T12:37:41.308Z,5.90
2023-04-14T12:40:09.298Z,5.00
2023-04-14T12:42:54.236Z,3.33
2023-04-14T12:45:22.840Z,5.85
2023-04-14T12:47:56.921Z,3.00
2023-04-14T12:50:28.637Z,3.83
2023-04-14T12:52:56.686Z,5.28
2023-04-14T12:55:25.040Z,4.90
2023-04-14T12:57:53.695Z,4.15
2023-04-14T13:00:22.256Z,3.97
2023-04-14T13:02:49.922Z,4.25
2023-04-14T13:05:17.272Z,2.25
2023-04-14T13:07:44.449Z,3.28
2023-04-14T13:10:11.843Z,2.03
2023-04-14T13:12:39.314Z,3.25
2023-04-14T13:15:07.083Z,3.58
2023-04-14T13:17:34.427Z,3.40
2023-04-14T13:20:01.766Z,3.20
2023-04-14T13:22:28.951Z,3.70
2023-04-14T13:24:58.381Z,3.63
2023-04-14T13:27:25.942Z,4.68
2023-04-14T13:29:53.384Z,3.50
2023-04-14T13:32:24.868Z,4.45
2023-04-14T13:34:52.831Z,2.90
2023-04-14T13:37:21.770Z,1.95
2023-04-14T13:39:49.115Z,4.28
2023-04-14T13:42:16.423Z,4.20
2023-04-14T13:44:44.361Z,4.40
2023-04-14T13:47:12.276Z,3.47
2023-04-14T13:49:40.237Z,1.15
2023-04-14T13:52:09.093Z,4.22
2023-04-14T13:54:36.389Z,3.03
2023-04-14T13:57:03.982Z,4.32
2023-04-14T13:59:31.837Z,4.50
2023-04-14T14:01:59.931Z,4.57
2023-04-14T14:04:27.552Z,5.82
2023-04-14T14:06:54.980Z,2.08
2023-04-14T14:09:22.076Z,3.63
2023-04-14T14:11:49.261Z,2.55
2023-04-14T14:14:16.510Z,5.78
2023-04-14T14:16:44.091Z,4.75
2023-04-14T14:19:15.718Z,2.58
2023-04-14T14:21:44.119Z,2.15
2023-04-14T14:24:12.371Z,7.18
2023-04-14T14:26:42.043Z,2.15
2023-04-14T14:29:09.271Z,3.17
2023-04-14T14:31:36.867Z,4.25
2023-04-14T14:36:46.388Z,4.45
2023-04-14T14:39:14.544Z,3.78
2023-04-14T14:41:41.766Z,5.38
2023-04-14T14:44:09.060Z,6.05
2023-04-14T14:46:45.668Z,3.20
2023-04-14T14:49:14.719Z,3.90
2023-04-14T14:51:42.071Z,4.50
2023-04-14T14:54:10.516Z,3.08
2023-04-14T14:56:38.308Z,3.47
2023-04-14T14:59:05.916Z,3.70
2023-04-14T15:01:33.779Z,3.10
2023-04-14T15:04:01.419Z,3.22
2023-04-14T15:06:28.908Z,3.78
2023-04-14T15:08:56.463Z,5.72
2023-04-14T15:11:24.465Z,6.22
2023-04-14T15:13:52.010Z,3.38
2023-04-14T15:16:19.533Z,3.38
2023-04-14T15:18:46.734Z,4.43
2023-04-14T15:21:14.040Z,3.75
2023-04-14T15:23:43.264Z,4.30
2023-04-14T15:26:10.465Z,4.07
2023-04-14T15:28:37.756Z,4.68
2023-04-14T15:31:04.933Z,2.67
2023-04-14T15:33:32.198Z,4.43
2023-04-14T15:35:59.674Z,5.60
2023-04-14T15:38:27.104Z,4.40
2023-04-14T15:40:54.743Z,2.60
2023-04-14T15:43:21.957Z,6.38
2023-04-14T15:45:49.169Z,3.28
2023-04-14T15:48:16.361Z,3.33
2023-04-14T15:50:44.673Z,4.45
2023-04-14T15:53:12.338Z,3.22
2023-04-14T15:55:58.929Z,4.18
2023-04-14T15:58:27.468Z,3.10
2023-04-14T16:03:22.067Z,5.63
2023-04-14T16:05:49.333Z,4.05
2023-04-14T16:08:16.998Z,5.53
2023-04-14T16:10:44.217Z,3.40
2023-04-14T16:13:12.240Z,4.85
2023-04-14T16:15:40.211Z,3.15
2023-04-14T16:18:07.686Z,3.85
2023-04-14T16:20:35.924Z,3.60
2023-04-14T16:23:03.153Z,2.88
2023-04-14T16:25:30.769Z,3.42
2023-04-14T16:27:57.942Z,1.90
2023-04-14T16:30:25.256Z,3.65
2023-04-14T16:32:53.019Z,3.95
2023-04-14T16:35:20.730Z,5.07
2023-04-14T16:37:47.850Z,6.60
2023-04-14T16:40:15.017Z,2.60
2023-04-14T16:42:42.152Z,2.55
2023-04-14T16:45:09.518Z,3.05
2023-04-14T16:47:36.822Z,8.60
2023-04-14T16:50:04.175Z,5.22
2023-04-14T16:52:31.790Z,5.30
2023-04-14T16:54:59.449Z,5.13
2023-04-14T16:57:27.254Z,4.00
2023-04-14T16:59:54.739Z,4.10
2023-04-14T17:02:22.807Z,3.63
2023-04-14T17:04:50.392Z,3.42
2023-04-14T17:07:17.963Z,4.18
2023-04-14T17:09:45.136Z,5.18
2023-04-14T17:12:12.318Z,4.85
2023-04-14T17:14:39.667Z,7.60
2023-04-14T17:17:07.192Z,6.20
2023-04-14T17:19:34.381Z,4.30
2023-04-14T17:22:01.848Z,5.38
2023-04-14T17:24:30.293Z,3.47
2023-04-14T17:26:57.564Z,4.45
2023-04-14T17:29:24.837Z,5.80
2023-04-14T17:31:52.318Z,6.32
2023-04-14T17:34:20.730Z,5.88
2023-04-14T17:36:47.994Z,2.92
2023-04-14T17:39:15.439Z,4.50
2023-04-14T17:41:42.596Z,2.40
2023-04-14T17:44:09.735Z,6.32
2023-04-14T17:46:36.951Z,4.65
2023-04-14T17:49:04.265Z,6.60
2023-04-14T17:51:31.946Z,4.90
2023-04-14T17:53:59.717Z,6.60
2023-04-14T17:56:27.078Z,8.18
2023-04-14T17:58:54.263Z,7.18
2023-04-14T18:01:22.079Z,5.28
2023-04-14T18:03:49.478Z,5.13
2023-04-14T18:06:16.809Z,4.25
2023-04-14T18:08:44.156Z,8.43
2023-04-14T18:11:12.721Z,6.55
2023-04-14T18:13:39.975Z,4.35
2023-04-14T18:16:08.557Z,4.38
2023-04-14T18:18:36.210Z,3.22
2023-04-14T18:21:03.451Z,5.47
2023-04-14T18:23:31.362Z,10.00
2023-04-14T18:28:32.573Z,8.07
2023-04-14T18:30:59.866Z,6.78
2023-04-14T18:33:27.713Z,6.95
2023-04-14T18:35:56.787Z,3.83
2023-04-14T18:38:24.772Z,8.50
2023-04-14T18:40:52.491Z,6.85
2023-04-14T18:43:19.784Z,6.50
2023-04-14T18:45:47.865Z,9.68
2023-04-14T18:48:15.626Z,9.60
2023-04-14T18:50:45.895Z,7.55
2023-04-14T18:53:13.356Z,8.20
2023-04-14T18:55:44.993Z,5.63
2023-04-14T18:58:13.411Z,5.00
2023-04-14T19:00:41.511Z,5.90
2023-04-14T19:03:09.182Z,7.28
2023-04-14T19:05:37.391Z,8.00
2023-04-14T19:08:05.072Z,7.75
2023-04-14T19:10:32.440Z,9.95
2023-04-14T19:12:59.683Z,25.02
2023-04-14T19:15:27.732Z,10.10
2023-04-14T19:17:55.776Z,8.98
2023-04-14T19:20:24.142Z,6.97
2023-04-14T19:22:51.434Z,10.48
2023-04-14T19:25:18.623Z,12.15
2023-04-14T19:27:46.011Z,9.88
2023-04-14T19:30:13.942Z,10.40
2023-04-14T19:32:41.946Z,8.63
2023-04-14T19:35:10.091Z,7.07
2023-04-14T19:37:38.486Z,6.07
2023-04-14T19:40:06.857Z,7.00
2023-04-14T19:42:34.246Z,6.10
2023-04-14T19:45:02.039Z,7.38
2023-04-14T19:47:29.381Z,5.72
2023-04-14T19:49:59.595Z,8.60
2023-04-14T19:52:27.379Z,9.00
2023-04-14T19:54:55.269Z,9.10
2023-04-14T19:57:23.800Z,7.07
2023-04-14T19:59:51.058Z,9.23
2023-04-14T20:02:19.028Z,5.00
2023-04-14T20:12:14.012Z,8.27
2023-04-14T20:14:41.466Z,6.15
2023-04-14T20:17:08.979Z,7.35
2023-04-14T20:19:36.966Z,12.30
2023-04-14T20:22:04.398Z,6.90
2023-04-14T20:24:31.579Z,6.60
2023-04-14T20:26:59.162Z,8.10
2023-04-14T20:29:26.551Z,10.80
2023-04-14T20:31:53.897Z,19.00
2023-04-14T20:34:21.048Z,10.57
2023-04-14T20:36:49.048Z,8.52
2023-04-14T20:39:16.172Z,11.10
2023-04-14T20:41:43.394Z,8.98
2023-04-14T20:44:10.581Z,8.93
2023-04-14T20:46:37.816Z,9.25
2023-04-14T20:49:05.091Z,9.65
2023-04-14T20:51:32.339Z,8.52
2023-04-14T20:53:59.551Z,10.43
2023-04-14T20:56:28.666Z,14.27
2023-04-14T20:58:56.200Z,8.25
2023-04-14T21:01:25.528Z,9.85
2023-04-14T21:03:52.846Z,7.70
2023-04-14T21:06:20.114Z,8.13
2023-04-14T21:08:47.557Z,7.80
2023-04-14T21:11:18.480Z,11.55
2023-04-14T21:15:29.749Z,9.98
2023-04-14T21:16:36.046Z,8.82
2023-04-14T21:19:04.328Z,8.52
2023-04-14T21:21:32.976Z,9.35
2023-04-14T21:24:00.303Z,7.75
2023-04-14T21:26:28.504Z,9.35
2023-04-14T21:28:56.526Z,10.63
2023-04-14T21:31:23.985Z,8.02
2023-04-14T21:33:51.722Z,8.07
2023-04-14T21:36:19.678Z,10.05
2023-04-14T21:38:47.187Z,7.50
2023-04-14T21:41:14.398Z,11.95
2023-04-14T21:43:41.866Z,9.43
2023-04-14T21:46:09.104Z,12.20
2023-04-14T21:49:14.632Z,14.13
2023-04-14T21:51:41.837Z,10.35
2023-04-14T21:54:08.976Z,8.35
2023-04-14T21:56:36.344Z,12.02
2023-04-14T21:59:03.838Z,11.40
2023-04-14T22:01:34.465Z,11.15
2023-04-14T22:04:01.962Z,9.98
2023-04-14T22:06:29.620Z,11.32
2023-04-14T22:08:56.929Z,8.35
2023-04-14T22:11:24.038Z,9.93
2023-04-14T22:13:51.557Z,11.15
2023-04-14T22:16:19.540Z,12.70
2023-04-14T22:18:46.689Z,11.85
2023-04-14T22:21:16.910Z,12.65
2023-04-14T22:23:44.179Z,11.13
2023-04-14T22:26:12.592Z,11.55
2023-04-14T22:28:40.032Z,12.90
2023-04-14T22:31:07.847Z,12.70
2023-04-14T22:33:35.815Z,13.13
2023-04-14T22:36:05.542Z,12.35
2023-04-14T22:38:34.010Z,10.98
2023-04-14T22:41:02.047Z,11.02
2023-04-14T22:43:30.033Z,9.80
2023-04-14T22:45:57.253Z,10.65
2023-04-14T22:48:24.413Z,12.13
2023-04-14T22:50:51.861Z,10.85
2023-04-14T22:53:18.990Z,10.10
2023-04-14T22:55:46.127Z,12.68
2023-04-14T22:58:20.223Z,11.35
2023-04-14T23:00:48.314Z,8.65
2023-04-14T23:03:15.692Z,14.40
2023-04-14T23:05:43.616Z,10.05
2023-04-14T23:08:10.876Z,10.35
2023-04-14T23:10:38.022Z,11.43
2023-04-14T23:13:05.169Z,15.27
2023-04-14T23:15:32.737Z,11.98
2023-04-14T23:17:59.993Z,11.70
2023-04-14T23:20:27.267Z,10.57
2023-04-14T23:22:55.007Z,11.77
2023-04-14T23:25:22.473Z,9.50
2023-04-14T23:27:49.830Z,12.77
2023-04-14T23:30:17.936Z,9.77
2023-04-14T23:32:45.069Z,13.13
2023-04-14T23:35:12.219Z,11.27
2023-04-14T23:37:39.436Z,11.80
2023-04-14T23:40:08.205Z,11.07
2023-04-14T23:42:35.351Z,9.90
2023-04-14T23:45:02.535Z,11.20
2023-04-14T23:47:29.743Z,10.63
2023-04-14T23:49:57.348Z,8.98
2023-04-14T23:52:24.764Z,11.43
2023-04-14T23:54:52.074Z,12.57
2023-04-14T23:57:19.370Z,10.85
2023-04-14T23:59:46.514Z,11.73
